Time;durP1;ratioP1;P1;durP2;ratioP2;P2;SDS_P1;SDS_P2;PMS_P1;PMS_P2;Temp;Humidity;BMP_temperature;BMP_pressure;BME280_temperature;BME280_humidity;BME280_pressure;Samples;Min_cycle;Max_cycle;Signal;HPM_P1;HPM_P2
2021/10/25 00:02:08;;;;;;;51.48;23.62;;;;;;;3.04;69.18;95943.43;1593989;89;21042;-60
2021/10/25 00:04:36;;;;;;;48.85;22.30;;;;;;;2.94;69.19;95942.70;1584416;89;20990;-61
2021/10/25 00:07:04;;;;;;;39.63;21.80;;;;;;;2.85;69.69;95936.19;1589238;90;21270;-60
2021/10/25 00:09:33;;;;;;;41.20;22.52;;;;;;;2.83;69.81;95933.66;1609167;88;21024;-60
2021/10/25 00:12:00;;;;;;;49.60;22.80;;;;;;;2.78;69.53;95936.11;1596964;89;21035;-60
2021/10/25 00:14:26;;;;;;;42.75;23.47;;;;;;;2.68;69.66;95940.81;1594447;90;21562;-60
2021/10/25 00:16:53;;;;;;;43.63;23.73;;;;;;;2.63;69.90;95940.34;1609530;86;21078;-61
2021/10/25 00:19:22;;;;;;;43.90;22.48;;;;;;;2.61;70.06;95942.64;1571425;89;21112;-60
2021/10/25 00:21:49;;;;;;;32.90;19.12;;;;;;;2.59;70.27;95941.67;1565904;89;21093;-61
2021/10/25 00:24:16;;;;;;;36.38;20.12;;;;;;;2.61;70.40;95948.88;1591775;90;21573;-60
2021/10/25 00:26:45;;;;;;;34.58;17.50;;;;;;;2.60;70.18;95948.67;1586626;89;21478;-61
2021/10/25 00:29:13;;;;;;;36.50;18.42;;;;;;;2.55;70.13;95943.56;1600654;88;21027;-60
2021/10/25 00:31:40;;;;;;;30.35;17.20;;;;;;;2.51;70.25;95954.16;1629268;87;21208;-60
2021/10/25 00:34:07;;;;;;;35.00;16.97;;;;;;;2.47;70.29;95949.25;1627529;87;21017;-61
2021/10/25 00:36:33;;;;;;;27.77;18.32;;;;;;;2.40;70.24;95945.86;1639179;86;21599;-61
2021/10/25 00:39:01;;;;;;;35.00;19.15;;;;;;;2.34;70.23;95950.60;1633091;86;21040;-61
2021/10/25 00:41:28;;;;;;;31.57;18.25;;;;;;;2.29;70.59;95948.20;1631176;86;21143;-64
2021/10/25 00:43:55;;;;;;;31.95;18.60;;;;;;;2.21;70.44;95943.80;1637932;86;21134;-61
2021/10/25 00:46:22;;;;;;;33.92;19.65;;;;;;;2.16;70.76;95950.91;1640853;86;20996;-59
2021/10/25 00:48:48;;;;;;;33.02;18.90;;;;;;;2.10;70.61;95955.09;1640504;85;21122;-60
2021/10/25 00:51:15;;;;;;;33.50;17.42;;;;;;;2.03;70.57;95945.45;1638721;86;21082;-60
2021/10/25 00:53:43;;;;;;;32.73;17.37;;;;;;;1.95;70.93;95948.63;1631280;86;21069;-60
2021/10/25 00:56:10;;;;;;;33.20;16.42;;;;;;;1.90;71.10;95950.84;1591604;86;21150;-60
2021/10/25 00:58:37;;;;;;;27.55;16.55;;;;;;;1.89;71.10;95950.08;1632280;86;21044;-60
2021/10/25 01:01:05;;;;;;;23.87;15.05;;;;;;;1.86;70.94;95950.81;1627771;86;21013;-64
2021/10/25 01:03:32;;;;;;;26.60;14.95;;;;;;;1.81;71.00;95953.03;1649276;85;21078;-59
2021/10/25 01:05:59;;;;;;;25.27;13.50;;;;;;;1.75;71.22;95953.13;1627059;87;21124;-60
2021/10/25 01:08:26;;;;;;;24.40;15.05;;;;;;;1.69;71.47;95966.00;1611787;88;21167;-60
2021/10/25 01:10:54;;;;;;;19.40;13.43;;;;;;;1.66;71.68;95962.66;1582785;89;21022;-59
2021/10/25 01:13:21;;;;;;;30.45;15.30;;;;;;;1.63;71.93;95951.95;1591913;89;21042;-60
2021/10/25 01:15:48;;;;;;;25.60;13.98;;;;;;;1.60;72.10;95951.31;1606105;88;21056;-60
2021/10/25 01:18:15;;;;;;;17.60;11.55;;;;;;;1.59;72.33;95953.02;1587303;90;21144;-59
2021/10/25 01:20:43;;;;;;;22.55;14.35;;;;;;;1.54;72.71;95952.73;1605992;88;21186;-60
2021/10/25 01:23:10;;;;;;;21.17;14.70;;;;;;;1.54;72.91;95945.19;1579197;89;21059;-61
2021/10/25 01:25:37;;;;;;;19.57;12.13;;;;;;;1.51;72.77;95942.61;1582830;90;21145;-60
2021/10/25 01:28:04;;;;;;;16.15;11.25;;;;;;;1.46;72.82;95942.92;1606088;88;21681;-60
2021/10/25 01:30:31;;;;;;;22.32;14.00;;;;;;;1.40;73.08;95940.30;1560842;89;21072;-61
2021/10/25 01:32:58;;;;;;;25.62;15.00;;;;;;;1.39;73.13;95942.80;1588821;89;21470;-58
2021/10/25 01:35:25;;;;;;;24.25;14.63;;;;;;;1.35;73.17;95939.22;1579564;88;21031;-59
2021/10/25 01:37:51;;;;;;;24.30;13.50;;;;;;;1.34;73.30;95945.02;1590988;90;21046;-60
2021/10/25 01:40:19;;;;;;;27.80;17.10;;;;;;;1.36;73.40;95941.38;1602489;88;21616;-59
2021/10/25 01:42:46;;;;;;;26.62;15.63;;;;;;;1.38;73.15;95933.66;1593244;88;21073;-59
2021/10/25 01:45:13;;;;;;;21.07;13.70;;;;;;;1.38;72.92;95937.17;1587707;90;21178;-60
2021/10/25 01:47:40;;;;;;;23.77;13.25;;;;;;;1.36;73.00;95939.42;1613090;88;22370;-62
2021/10/25 01:50:08;;;;;;;25.92;14.30;;;;;;;1.38;73.14;95942.59;1594527;89;21066;-60
2021/10/25 01:52:36;;;;;;;25.92;14.78;;;;;;;1.38;73.07;95933.10;1594352;90;21078;-59
2021/10/25 01:55:05;;;;;;;23.87;14.30;;;;;;;1.37;72.77;95938.31;1614748;88;20992;-59
2021/10/25 01:57:31;;;;;;;23.80;13.68;;;;;;;1.31;72.72;95934.30;1619008;87;21097;-61
2021/10/25 01:59:59;;;;;;;24.30;15.15;;;;;;;1.25;72.70;95935.75;1642593;86;21091;-60
2021/10/25 02:02:28;;;;;;;29.80;14.18;;;;;;;1.23;72.84;95934.53;1603240;88;21014;-60
2021/10/25 02:04:54;;;;;;;26.95;14.43;;;;;;;1.18;73.10;95934.83;1588629;90;21043;-60
2021/10/25 02:07:21;;;;;;;28.47;13.85;;;;;;;1.12;73.27;95939.75;1613086;88;21158;-61
2021/10/25 02:09:47;;;;;;;27.50;14.28;;;;;;;1.05;73.47;95943.69;1562394;91;21130;-60
2021/10/25 02:12:16;;;;;;;32.48;15.95;;;;;;;0.98;73.75;95942.17;1631323;86;21523;-59
2021/10/25 02:14:43;;;;;;;29.85;17.45;;;;;;;0.96;74.04;95933.63;1600526;87;21051;-60
2021/10/25 02:17:10;;;;;;;32.85;16.55;;;;;;;0.96;74.12;95941.75;1594247;90;21082;-59
2021/10/25 02:19:38;;;;;;;30.05;15.95;;;;;;;0.99;74.54;95932.91;1574672;88;20999;-61
2021/10/25 02:22:08;;;;;;;74.67;42.10;;;;;;;1.04;73.93;95931.84;1572100;88;21805;-59
2021/10/25 02:24:35;;;;;;;49.67;27.02;;;;;;;1.03;73.70;95930.27;1572364;89;21478;-60
2021/10/25 02:27:04;;;;;;;41.83;24.23;;;;;;;1.02;73.61;95934.92;1565770;89;21564;-60
2021/10/25 02:29:38;;;;;;;41.30;19.92;;;;;;;1.03;73.74;95944.62;1602900;88;21039;-60
2021/10/25 02:32:07;;;;;;;37.70;20.08;;;;;;;1.12;74.04;95932.98;1586427;89;21117;-60
2021/10/25 02:34:34;;;;;;;36.90;20.72;;;;;;;1.24;73.62;95935.54;1581642;89;21876;-60
2021/10/25 02:37:03;;;;;;;31.00;18.85;;;;;;;1.25;72.89;95939.02;1565322;90;21090;-60
2021/10/25 02:39:31;;;;;;;35.68;20.55;;;;;;;1.19;72.58;95931.77;1565879;88;21621;-59
2021/10/25 02:41:58;;;;;;;32.20;20.08;;;;;;;1.20;72.83;95927.12;1594302;90;21035;-61
2021/10/25 02:44:24;;;;;;;33.67;21.65;;;;;;;1.24;72.64;95936.89;1592296;89;21104;-59
2021/10/25 02:46:53;;;;;;;25.17;16.35;;;;;;;1.23;72.46;95938.59;1606440;87;21922;-55
2021/10/25 02:49:20;;;;;;;26.93;16.73;;;;;;;1.17;72.51;95928.61;1581644;88;21077;-58
2021/10/25 02:51:47;;;;;;;25.62;16.77;;;;;;;1.19;72.77;95927.71;1604687;87;21062;-57
2021/10/25 02:54:14;;;;;;;29.30;16.17;;;;;;;1.25;72.48;95927.62;1571545;90;21089;-59
2021/10/25 02:56:45;;;;;;;32.83;17.98;;;;;;;1.30;72.37;95924.61;1599441;89;21089;-57
2021/10/25 02:59:12;;;;;;;46.58;20.32;;;;;;;1.40;72.32;95930.02;1593987;90;21494;-58
2021/10/25 03:01:40;;;;;;;47.67;23.73;;;;;;;1.47;71.98;95922.80;1606531;88;21083;-56
2021/10/25 03:04:08;;;;;;;40.33;21.27;;;;;;;1.57;72.07;95924.13;1590051;88;21193;-57
2021/10/25 03:06:36;;;;;;;35.13;18.57;;;;;;;1.60;71.84;95922.84;1611596;88;21079;-58
2021/10/25 03:09:04;;;;;;;33.48;18.90;;;;;;;1.55;71.57;95918.28;1591730;89;21064;-58
2021/10/25 03:11:33;;;;;;;36.50;18.32;;;;;;;1.48;71.70;95914.88;1610003;88;21180;-58
2021/10/25 03:14:00;;;;;;;46.85;23.95;;;;;;;1.48;71.71;95916.22;1574239;89;21113;-62
2021/10/25 03:16:30;;;;;;;40.20;24.23;;;;;;;1.48;71.73;95921.65;1593449;89;21074;-60
2021/10/25 03:18:57;;;;;;;41.30;21.82;;;;;;;1.51;71.61;95916.85;1580856;88;21043;-61
2021/10/25 03:21:24;;;;;;;33.53;19.02;;;;;;;1.54;71.21;95923.49;1591650;89;21095;-60
2021/10/25 03:23:51;;;;;;;28.20;18.07;;;;;;;1.54;70.91;95926.97;1588781;89;21860;-60
2021/10/25 03:26:18;;;;;;;34.13;18.42;;;;;;;1.53;70.59;95917.27;1582863;89;21094;-61
2021/10/25 03:28:45;;;;;;;36.00;20.70;;;;;;;1.62;70.51;95918.39;1573748;90;21005;-60
2021/10/25 03:31:12;;;;;;;69.10;32.75;;;;;;;1.65;69.95;95918.46;1591231;89;21078;-60
2021/10/25 03:33:40;;;;;;;97.50;43.08;;;;;;;1.58;70.09;95921.06;1592087;88;21147;-60
2021/10/25 03:36:12;;;;;;;69.32;32.42;;;;;;;1.55;69.88;95920.99;1569521;89;41249;-60
2021/10/25 03:38:39;;;;;;;63.85;31.17;;;;;;;1.50;69.97;95918.59;1607022;88;21032;-60
2021/10/25 03:41:14;;;;;;;49.08;26.57;;;;;;;1.54;70.26;95922.91;1593956;90;21006;-61
2021/10/25 03:43:42;;;;;;;154.35;78.65;;;;;;;1.54;69.55;95927.56;1606907;87;21090;-60
2021/10/25 03:46:18;;;;;;;48.23;26.55;;;;;;;1.49;69.78;95921.09;1569218;89;21038;-63
2021/10/25 03:48:41;;;;;;;46.33;23.80;;;;;;;1.46;69.58;95917.16;1583020;89;22032;-60
2021/10/25 03:51:10;;;;;;;47.93;25.00;;;;;;;1.36;69.96;95919.09;1593800;89;21086;-60
2021/10/25 03:53:49;;;;;;;37.65;23.55;;;;;;;1.33;69.90;95923.88;1586586;89;21002;-61
2021/10/25 03:56:14;;;;;;;39.63;21.12;;;;;;;1.29;69.94;95914.14;1596254;88;21614;-61
2021/10/25 04:26:49;;;;;;;45.65;23.47;;;;;;;1.22;69.80;95916.15;1638835;85;21091;-61
2021/10/25 04:28:38;;;;;;;45.12;27.05;;;;;;;1.27;69.63;95909.07;1633994;86;22366;-62
2021/10/25 04:31:04;;;;;;;43.78;25.23;;;;;;;1.29;69.46;95910.84;1636259;86;21036;-61
2021/10/25 04:33:34;;;;;;;45.65;22.15;;;;;;;1.17;69.45;95910.23;1638647;86;21461;-60
2021/10/25 04:36:04;;;;;;;40.43;23.57;;;;;;;1.06;69.60;95903.81;1600815;88;21020;-61
2021/10/25 04:38:30;;;;;;;40.83;21.45;;;;;;;0.88;69.40;95910.26;1581029;90;21090;-61
2021/10/25 04:40:57;;;;;;;48.10;19.95;;;;;;;0.66;69.70;95906.11;1571446;89;21177;-65
2021/10/25 04:43:25;;;;;;;47.85;21.45;;;;;;;0.54;70.18;95905.69;1592692;90;21093;-61
2021/10/25 04:45:52;;;;;;;53.30;21.70;;;;;;;0.54;70.56;95906.23;1611626;88;21084;-64
2021/10/25 04:48:18;;;;;;;49.53;23.62;;;;;;;0.56;70.59;95916.94;1572670;90;21578;-61
2021/10/25 04:50:59;;;;;;;45.10;25.90;;;;;;;0.62;70.63;95910.67;1606549;87;21116;-63
2021/10/25 04:53:41;;;;;;;54.77;23.87;;;;;;;0.71;70.71;95913.39;1643105;86;21169;-63
2021/10/25 04:56:10;;;;;;;44.05;23.27;;;;;;;0.82;70.54;95917.66;1644279;86;21080;-63
2021/10/25 04:58:37;;;;;;;49.13;23.65;;;;;;;0.91;70.43;95908.19;1637801;86;21070;-64
2021/10/25 05:01:04;;;;;;;60.73;28.05;;;;;;;0.98;69.91;95909.66;1636473;87;21073;-61
2021/10/25 05:03:35;;;;;;;64.37;29.45;;;;;;;1.03;69.69;95911.31;1627367;88;21084;-60
2021/10/25 05:06:03;;;;;;;94.22;48.98;;;;;;;0.98;69.52;95912.38;1606493;88;21201;-60
2021/10/25 05:08:32;;;;;;;78.50;36.13;;;;;;;0.85;69.62;95920.45;1587434;89;21099;-61
2021/10/25 05:10:58;;;;;;;70.40;30.27;;;;;;;0.79;70.00;95917.80;1569710;89;21478;-62
2021/10/25 05:13:25;;;;;;;73.35;32.85;;;;;;;0.74;69.88;95927.56;1587641;88;21095;-60
2021/10/25 05:15:52;;;;;;;77.85;35.68;;;;;;;0.67;70.12;95930.70;1587106;90;21043;-61
2021/10/25 05:18:19;;;;;;;61.53;35.83;;;;;;;0.60;70.32;95934.03;1595179;89;21186;-61
2021/10/25 05:20:46;;;;;;;62.08;34.43;;;;;;;0.60;70.51;95936.74;1639796;87;21065;-62
2021/10/25 05:23:13;;;;;;;70.83;34.38;;;;;;;0.60;70.58;95936.74;1645871;85;21057;-62
2021/10/25 05:25:41;;;;;;;75.05;36.63;;;;;;;0.62;70.48;95935.81;1641035;85;21087;-61
2021/10/25 05:28:10;;;;;;;89.40;39.70;;;;;;;0.67;70.63;95943.68;1671190;85;21150;-63
2021/10/25 05:30:37;;;;;;;84.00;38.95;;;;;;;0.79;70.42;95938.11;1647040;85;21207;-62
2021/10/25 05:33:04;;;;;;;84.25;40.23;;;;;;;0.89;70.06;95937.55;1625851;86;21119;-61
2021/10/25 05:35:30;;;;;;;98.27;48.55;;;;;;;0.98;69.86;95938.70;1632720;85;21620;-64
2021/10/25 05:37:59;;;;;;;83.20;45.92;;;;;;;1.08;69.65;95935.39;1624601;85;21064;-65
2021/10/25 05:40:26;;;;;;;115.57;64.10;;;;;;;1.15;69.23;95930.90;1651101;85;21062;-64
2021/10/25 05:42:55;;;;;;;179.25;95.45;;;;;;;1.10;69.32;95943.39;1671543;85;21501;-64
2021/10/25 05:45:22;;;;;;;140.55;73.65;;;;;;;1.03;69.28;95939.20;1648376;85;21077;-65
2021/10/25 05:47:49;;;;;;;146.57;76.95;;;;;;;0.98;69.29;95942.77;1643658;85;21034;-64
2021/10/25 05:50:16;;;;;;;129.90;72.42;;;;;;;0.93;69.49;95941.70;1650417;85;21144;-65
2021/10/25 05:52:43;;;;;;;134.70;72.25;;;;;;;0.91;69.55;95937.98;1624790;86;21093;-62
2021/10/25 05:55:10;;;;;;;125.87;69.55;;;;;;;0.90;69.87;95948.60;1641808;85;21174;-65
2021/10/25 05:57:39;;;;;;;102.38;58.48;;;;;;;0.96;70.01;95949.88;1634832;85;21037;-63
2021/10/25 06:00:07;;;;;;;96.20;50.43;;;;;;;0.98;69.94;95952.24;1640430;85;21056;-62
2021/10/25 06:02:37;;;;;;;124.87;67.62;;;;;;;0.93;70.25;95951.95;1621435;85;21904;-63
2021/10/25 06:05:07;;;;;;;86.02;47.00;;;;;;;0.95;70.42;95952.38;1619756;85;21109;-63
2021/10/25 06:07:36;;;;;;;74.03;43.65;;;;;;;0.95;70.50;95949.66;1610926;85;21159;-64
2021/10/25 06:10:03;;;;;;;67.37;41.90;;;;;;;0.90;70.84;95947.80;1593254;87;21028;-62
2021/10/25 06:12:41;;;;;;;54.75;34.60;;;;;;;0.93;71.26;95953.89;1601725;86;21091;-65
2021/10/25 06:15:25;;;;;;;70.20;41.58;;;;;;;1.01;71.60;95957.74;1601863;86;21036;-64
2021/10/25 06:17:55;;;;;;;78.60;47.70;;;;;;;1.10;71.72;95951.52;1596346;87;21088;-64
2021/10/25 06:20:25;;;;;;;69.75;40.73;;;;;;;1.16;71.52;95953.37;1591703;88;21155;-63
2021/10/25 06:22:52;;;;;;;80.72;46.88;;;;;;;1.20;71.61;95952.31;1573789;87;21032;-67
2021/10/25 06:25:22;;;;;;;81.63;45.45;;;;;;;1.26;71.62;95952.22;1568941;87;21081;-66
2021/10/25 06:27:51;;;;;;;83.95;47.23;;;;;;;1.35;71.55;95948.70;1586311;88;22357;-61
2021/10/25 06:30:19;;;;;;;74.58;40.15;;;;;;;1.41;71.50;95951.35;1593050;88;21059;-61
2021/10/25 06:32:47;;;;;;;85.20;42.25;;;;;;;1.51;71.34;95952.10;1614505;86;21189;-61
2021/10/25 06:35:24;;;;;;;93.10;46.05;;;;;;;1.62;71.40;95954.45;1637005;85;21005;-61
2021/10/25 06:40:24;;;;;;;68.00;37.60;;;;;;;1.87;71.14;95954.29;1606913;87;21133;-61
2021/10/25 06:42:51;;;;;;;59.40;33.80;;;;;;;2.01;70.89;95957.25;1594189;88;21089;-61
2021/10/25 06:45:22;;;;;;;58.13;34.05;;;;;;;2.11;70.62;95953.94;1600837;87;21237;-59
2021/10/25 06:47:50;;;;;;;52.50;30.52;;;;;;;2.21;70.56;95951.95;1586653;88;21054;-61
2021/10/25 06:50:25;;;;;;;69.00;39.90;;;;;;;2.29;70.39;95953.64;1616407;87;21521;-62
2021/10/25 06:53:05;;;;;;;73.37;42.48;;;;;;;2.38;70.14;95946.00;1631512;85;21037;-61
2021/10/25 06:55:46;;;;;;;69.60;39.50;;;;;;;2.46;70.18;95955.81;1645376;85;21148;-62
2021/10/25 06:58:14;;;;;;;45.67;29.45;;;;;;;2.55;69.97;95943.56;1649532;85;22253;-63
2021/10/25 07:00:43;;;;;;;37.65;24.30;;;;;;;2.63;69.79;95944.41;1636670;86;21004;-60
2021/10/25 07:03:11;;;;;;;40.33;25.52;;;;;;;2.69;69.46;95938.30;1630136;85;21049;-59
2021/10/25 07:05:38;;;;;;;32.85;18.50;;;;;;;2.76;69.31;95943.05;1633790;85;21151;-69
2021/10/25 07:08:07;;;;;;;35.63;21.95;;;;;;;2.90;68.83;95932.38;1622967;85;21145;-63
2021/10/25 07:10:35;;;;;;;29.65;18.07;;;;;;;3.01;68.42;95925.91;1626139;85;21153;-66
2021/10/25 07:13:04;;;;;;;33.18;20.72;;;;;;;3.13;68.20;95926.24;1650842;84;21156;-63
2021/10/25 07:15:37;;;;;;;40.15;23.35;;;;;;;3.18;67.91;95923.19;1641805;85;21080;-64
2021/10/25 07:18:14;;;;;;;40.12;22.87;;;;;;;3.26;67.82;95923.48;1623032;86;21080;-61
2021/10/25 07:26:52;;;;;;;49.93;29.45;;;;;;;3.48;67.26;95917.91;1559594;89;21155;-65
2021/10/25 08:00:14;;;;;;;20.57;11.00;;;;;;;5.52;62.03;95875.97;1610520;87;21104;-63
2021/10/25 08:05:37;;;;;;;19.12;11.68;;;;;;;5.92;61.08;95880.31;1626426;87;21181;-58
2021/10/25 08:07:54;;;;;;;20.30;12.58;;;;;;;6.01;59.99;95875.26;1640461;85;21647;-63
2021/10/25 08:10:24;;;;;;;18.20;12.88;;;;;;;6.02;59.86;95868.63;1634587;85;21530;-63
2021/10/25 08:12:52;;;;;;;16.20;11.75;;;;;;;6.06;59.62;95872.92;1628044;85;20990;-60
2021/10/25 08:15:32;;;;;;;15.23;9.90;;;;;;;6.18;59.59;95870.37;1631099;85;21064;-64
2021/10/25 08:17:54;;;;;;;19.73;12.65;;;;;;;6.30;59.12;95867.26;1662921;85;21145;-62
2021/10/25 08:20:19;;;;;;;14.15;9.15;;;;;;;6.42;59.08;95857.27;1664008;84;21064;-64
2021/10/25 08:22:49;;;;;;;22.10;12.50;;;;;;;6.63;58.93;95862.11;1628308;87;21179;-64
2021/10/25 08:25:16;;;;;;;15.78;9.28;;;;;;;6.92;58.28;95857.33;1621036;85;21667;-61
2021/10/25 08:28:00;;;;;;;13.58;9.85;;;;;;;7.04;57.01;95857.66;1631274;86;21576;-65
2021/10/25 08:30:28;;;;;;;14.35;9.70;;;;;;;7.20;56.97;95849.78;1630542;87;21343;-70
2021/10/25 08:33:08;;;;;;;13.05;10.00;;;;;;;7.40;57.32;95847.53;1622086;86;21597;-62
2021/10/25 08:41:07;;;;;;;8.15;6.95;;;;;;;7.80;54.59;95831.02;1580905;89;21132;-66
2021/10/25 08:43:41;;;;;;;9.33;6.97;;;;;;;7.96;53.61;95825.23;1575802;89;21577;-66
2021/10/25 08:46:17;;;;;;;12.43;8.23;;;;;;;8.11;52.86;95828.02;1587720;87;21122;-63
2021/10/25 08:48:47;;;;;;;11.57;8.18;;;;;;;8.29;52.41;95830.64;1583020;86;21146;-61
2021/10/25 08:51:17;;;;;;;17.82;9.75;;;;;;;8.38;51.81;95833.10;1601439;88;21389;-67
2021/10/25 08:53:44;;;;;;;14.65;9.38;;;;;;;8.54;51.61;95822.94;1582228;88;21272;-67
2021/10/25 08:56:18;;;;;;;20.37;10.48;;;;;;;8.69;51.21;95828.47;1590883;89;21134;-64
2021/10/25 08:58:50;;;;;;;28.32;11.05;;;;;;;8.89;51.24;95835.70;1633643;86;21036;-70
2021/10/25 09:01:26;;;;;;;21.30;9.97;;;;;;;9.26;50.53;95835.63;1604297;86;21771;-62
2021/10/25 09:04:06;;;;;;;23.12;10.20;;;;;;;9.56;49.92;95832.85;1627148;87;21218;-61
2021/10/25 09:06:36;;;;;;;13.18;8.10;;;;;;;9.75;49.49;95826.10;1618332;86;22571;-64
2021/10/25 09:09:08;;;;;;;11.43;7.50;;;;;;;9.99;48.48;95825.55;1641589;86;21083;-66
2021/10/25 09:11:35;;;;;;;10.08;6.83;;;;;;;10.10;47.66;95819.30;1628463;87;21024;-62
2021/10/25 09:14:14;;;;;;;14.15;7.72;;;;;;;10.22;47.03;95821.46;1633978;86;21156;-60
2021/10/25 09:16:44;;;;;;;10.65;6.92;;;;;;;10.42;47.71;95814.03;1657867;85;21057;-68
2021/10/25 09:19:21;;;;;;;16.55;9.85;;;;;;;10.76;47.42;95813.39;1653840;85;21030;-64
2021/10/25 09:21:51;;;;;;;16.93;10.30;;;;;;;10.96;45.80;95811.42;1648306;85;21162;-66
2021/10/25 09:24:25;;;;;;;23.05;12.93;;;;;;;11.11;45.48;95801.69;1577330;87;21068;-65
2021/10/25 09:27:04;;;;;;;27.10;13.68;;;;;;;11.48;45.08;95800.48;1603310;86;21584;-65
2021/10/25 09:29:39;;;;;;;15.83;8.63;;;;;;;11.91;44.88;95799.13;1641418;84;21061;-63
2021/10/25 09:32:14;;;;;;;9.68;6.67;;;;;;;12.35;43.66;95794.31;1643801;87;21074;-63
2021/10/25 09:34:48;;;;;;;11.55;6.53;;;;;;;12.70;42.32;95797.53;1590645;87;21163;-60
2021/10/25 09:37:40;;;;;;;10.55;7.12;;;;;;;12.95;41.44;95792.92;1599613;87;21600;-66
2021/10/25 09:40:17;;;;;;;15.65;9.10;;;;;;;13.25;40.94;95794.44;1584403;87;21179;-65
2021/10/25 09:43:03;;;;;;;14.00;8.58;;;;;;;13.50;40.07;95786.19;1589829;87;21142;-63
2021/10/25 09:45:38;;;;;;;17.40;7.92;;;;;;;13.67;39.49;95784.88;1569119;88;21033;-67
2021/10/25 09:51:06;;;;;;;13.00;7.17;;;;;;;14.31;37.68;95787.97;1583803;85;21568;-62
2021/10/25 09:53:43;;;;;;;11.48;7.75;;;;;;;14.74;37.63;95775.61;1621510;86;21080;-63
2021/10/25 09:56:10;;;;;;;12.20;6.97;;;;;;;15.34;36.20;95768.08;1637402;85;21151;-66
2021/10/25 10:01:12;;;;;;;12.63;6.10;;;;;;;16.46;34.02;95765.80;1596264;86;22519;-65
2021/10/25 10:03:44;;;;;;;12.50;6.80;;;;;;;17.01;33.26;95761.05;1628334;85;21499;-64
2021/10/25 10:06:25;;;;;;;9.18;5.90;;;;;;;17.38;32.22;95755.02;1625370;85;21528;-64
2021/10/25 10:08:56;;;;;;;9.03;5.22;;;;;;;17.87;31.59;95757.52;1645301;85;21079;-67
2021/10/25 10:11:24;;;;;;;9.40;5.40;;;;;;;18.46;31.03;95753.23;1637761;85;21077;-63
2021/10/25 10:13:50;;;;;;;15.03;7.83;;;;;;;18.99;31.46;95737.37;1598597;88;21133;-65
2021/10/25 10:16:20;;;;;;;11.53;6.78;;;;;;;19.28;30.77;95743.02;1599135;87;21148;-68
2021/10/25 10:18:55;;;;;;;14.23;8.03;;;;;;;19.61;30.15;95733.84;1577237;88;21092;-71
2021/10/25 10:21:27;;;;;;;13.78;7.10;;;;;;;19.95;30.15;95731.75;1606672;87;21080;-67
2021/10/25 10:24:03;;;;;;;10.63;7.03;;;;;;;20.43;29.62;95728.97;1593784;88;21117;-67
2021/10/25 10:26:32;;;;;;;19.60;8.43;;;;;;;20.98;28.47;95734.52;1565969;88;21605;-64
2021/10/25 10:28:53;;;;;;;15.25;8.05;;;;;;;21.51;27.92;95730.66;1602970;87;21700;-64
2021/10/25 10:31:24;;;;;;;11.80;6.62;;;;;;;22.03;27.38;95728.09;1585174;87;21212;-62
2021/10/25 10:34:13;;;;;;;16.27;7.42;;;;;;;22.47;25.81;95729.08;1552902;88;21593;-68
2021/10/25 10:36:53;;;;;;;14.18;7.40;;;;;;;22.45;25.93;95723.95;1588991;87;21643;-63
2021/10/25 10:39:29;;;;;;;9.33;5.67;;;;;;;22.69;25.87;95721.53;1602860;87;21162;-65
2021/10/25 10:42:20;;;;;;;7.85;4.45;;;;;;;23.00;25.11;95718.61;1601546;87;21574;-69
2021/10/25 10:44:58;;;;;;;7.40;4.87;;;;;;;23.40;24.62;95715.45;1603156;86;21084;-65
2021/10/25 10:47:23;;;;;;;10.15;5.72;;;;;;;23.90;23.54;95707.88;1584899;88;21470;-61
2021/10/25 10:49:56;;;;;;;10.08;6.12;;;;;;;24.41;23.40;95704.52;1594527;88;21042;-68
2021/10/25 10:52:36;;;;;;;8.53;5.28;;;;;;;24.90;23.19;95699.44;1607752;88;21719;-64
2021/10/25 10:55:25;;;;;;;8.33;6.20;;;;;;;25.22;21.74;95698.55;1604865;88;21148;-67
2021/10/25 11:00:43;;;;;;;5.53;4.45;;;;;;;25.39;21.50;95681.53;1639896;85;21075;-65
2021/10/25 11:03:18;;;;;;;8.68;4.55;;;;;;;25.64;21.15;95687.41;1635665;85;21078;-64
2021/10/25 11:06:03;;;;;;;5.12;3.80;;;;;;;25.67;20.93;95682.13;1641620;85;21143;-66
2021/10/25 11:09:01;;;;;;;7.75;5.40;;;;;;;25.72;21.09;95679.91;1664326;85;21436;-63
2021/10/25 11:11:41;;;;;;;10.08;7.15;;;;;;;25.74;20.76;95679.52;1595458;86;21654;-66
2021/10/25 11:14:17;;;;;;;7.30;4.80;;;;;;;25.86;20.67;95675.98;1638855;85;21076;-68
2021/10/25 11:17:13;;;;;;;8.23;4.67;;;;;;;26.09;19.93;95671.05;1643507;85;21149;-66
2021/10/25 11:19:26;;;;;;;9.80;5.92;;;;;;;26.21;20.33;95668.23;1642435;85;21103;-63
2021/10/25 11:21:57;;;;;;;8.00;4.58;;;;;;;26.36;20.38;95662.95;1649949;85;21078;-70
2021/10/25 11:24:24;;;;;;;14.03;7.90;;;;;;;26.29;19.53;95662.14;1639658;85;21084;-66
2021/10/25 11:26:59;;;;;;;7.42;4.62;;;;;;;26.27;19.64;95661.25;1638730;84;21077;-68
2021/10/25 11:29:45;;;;;;;8.30;5.30;;;;;;;26.40;19.37;95651.50;1620718;85;21084;-67
2021/10/25 11:32:12;;;;;;;9.60;6.12;;;;;;;26.43;19.24;95647.61;1638536;86;22604;-63
2021/10/25 11:34:54;;;;;;;9.78;4.97;;;;;;;26.61;19.41;95640.51;1640856;85;21090;-62
2021/10/25 11:37:19;;;;;;;6.37;4.60;;;;;;;26.89;18.76;95647.34;1634225;86;21150;-66
2021/10/25 11:39:57;;;;;;;7.72;4.60;;;;;;;27.10;17.81;95638.53;1608374;85;21138;-62
2021/10/25 11:42:31;;;;;;;7.22;4.33;;;;;;;27.16;17.92;95639.84;1626582;86;21130;-68
2021/10/25 11:45:00;;;;;;;6.37;4.05;;;;;;;27.22;17.05;95637.06;1608584;86;21563;-67
2021/10/25 11:47:32;;;;;;;9.20;4.97;;;;;;;27.01;17.38;95629.64;1632247;85;21029;-64
2021/10/25 11:50:13;;;;;;;7.03;4.50;;;;;;;26.77;17.46;95623.38;1633820;85;21211;-62
2021/10/25 11:52:53;;;;;;;10.50;5.08;;;;;;;26.81;17.49;95621.02;1635822;85;21365;-61
2021/10/25 11:55:24;;;;;;;12.33;6.53;;;;;;;27.14;18.07;95612.14;1640991;85;21303;-61
2021/10/25 11:57:56;;;;;;;10.00;6.40;;;;;;;27.35;17.98;95613.75;1613200;86;21130;-61
2021/10/25 12:00:34;;;;;;;13.08;7.17;;;;;;;27.44;17.60;95604.22;1628570;85;21043;-63
2021/10/25 12:03:19;;;;;;;9.28;5.95;;;;;;;27.44;17.60;95604.22;1632404;85;21120;-65
2021/10/25 12:05:47;;;;;;;12.75;7.03;;;;;;;27.39;17.19;95590.94;1634342;85;21032;-64
2021/10/25 12:08:16;;;;;;;11.15;6.25;;;;;;;27.40;16.70;95593.88;1632763;86;21062;-64
2021/10/25 12:10:45;;;;;;;19.40;12.13;;;;;;;27.48;16.44;95594.03;1635268;85;21837;-64
2021/10/25 12:13:12;;;;;;;18.45;10.60;;;;;;;27.62;16.10;95593.53;1635833;85;20980;-63
2021/10/25 12:15:58;;;;;;;13.75;8.88;;;;;;;27.64;15.72;95590.17;1647283;84;21130;-63
2021/10/25 12:18:19;;;;;;;13.03;5.83;;;;;;;27.65;15.51;95591.06;1639936;85;21537;-64
2021/10/25 12:20:47;;;;;;;9.53;4.85;;;;;;;27.87;16.21;95587.89;1648284;85;21496;-66
2021/10/25 12:23:18;;;;;;;7.40;4.53;;;;;;;28.02;16.01;95589.55;1636204;85;21161;-65
2021/10/25 12:25:46;;;;;;;9.03;5.47;;;;;;;28.11;15.49;95579.22;1636209;85;21139;-66
2021/10/25 12:28:17;;;;;;;10.55;4.58;;;;;;;28.29;15.04;95579.14;1635172;85;21508;-65
2021/10/25 12:30:47;;;;;;;7.97;4.33;;;;;;;28.36;14.90;95581.34;1632595;85;21560;-62
2021/10/25 12:33:13;;;;;;;10.78;5.25;;;;;;;28.39;14.70;95585.16;1640161;85;21108;-60
2021/10/25 12:35:44;;;;;;;6.33;3.83;;;;;;;28.54;14.09;95574.80;1616706;85;21336;-67
2021/10/25 12:38:15;;;;;;;8.78;4.50;;;;;;;28.43;12.16;95576.43;1632221;86;21079;-63
2021/10/25 12:40:57;;;;;;;7.45;3.83;;;;;;;28.26;12.71;95566.05;1651059;84;21531;-66
2021/10/25 12:43:24;;;;;;;6.53;4.72;;;;;;;28.26;12.71;95566.05;1639838;84;21091;-66
2021/10/25 12:46:03;;;;;;;9.60;6.30;;;;;;;28.09;12.48;95569.87;1642643;85;21172;-65
2021/10/25 12:48:50;;;;;;;11.00;5.75;;;;;;;27.72;12.94;95571.29;1640664;85;21156;-66
2021/10/25 12:51:18;;;;;;;8.20;5.22;;;;;;;27.76;14.10;95569.67;1612678;86;21564;-66
2021/10/25 12:53:47;;;;;;;12.78;7.08;;;;;;;27.79;13.48;95562.93;1627417;85;21076;-62
2021/10/25 12:56:25;;;;;;;10.23;5.55;;;;;;;27.88;13.89;95561.75;1656450;85;21195;-63
2021/10/25 12:59:04;;;;;;;10.38;5.15;;;;;;;28.12;13.24;95558.09;1634630;85;21051;-65
2021/10/25 13:01:32;;;;;;;8.90;5.83;;;;;;;28.17;12.51;95555.16;1630775;85;21083;-66
2021/10/25 13:04:01;;;;;;;13.75;5.15;;;;;;;28.06;11.68;95551.78;1641082;85;21379;-65
2021/10/25 13:06:34;;;;;;;11.08;5.97;;;;;;;27.61;12.16;95549.58;1624046;86;21198;-64